Time,TemperatureF,DewpointF,PressureIn,WindDirection,WindDirectionDegrees,WindSpeedMPH,WindSpeedGustMPH,Humidity,HourlyPrecipIn,Conditions,Clouds,dailyrainin,SolarRadiationWatts/m^2,SoftwareType,DateUTC
2013-05-03 00:00:00,56.0,43.0,-100.00,ESE,112,4.0,-999.0,62,-99.99,,,-99.99,0.000000,,2013-05-03 04:00:00,
2013-05-03 00:43:00,56.0,43.0,-100.00,ESE,112,4.0,-999.0,62,-99.99,,,-99.99,0.000000,,2013-05-03 04:43:00,
2013-05-03 00:53:00,56.0,43.0,-100.00,ESE,112,4.0,-999.0,62,-99.99,,,-99.99,0.000000,,2013-05-03 04:53:00,
2013-05-03 01:00:00,55.0,43.0,-100.00,East,90,3.0,-999.0,64,-99.99,,,-99.99,0.000000,,2013-05-03 05:00:00,
2013-05-03 01:42:00,55.0,43.0,-100.00,East,90,3.0,-999.0,64,-99.99,,,-99.99,0.000000,,2013-05-03 05:42:00,
2013-05-03 01:52:00,55.0,43.0,-100.00,East,90,3.0,-999.0,64,-99.99,,,-99.99,0.000000,,2013-05-03 05:52:00,
2013-05-03 02:00:00,54.0,44.0,-100.00,East,90,1.0,-999.0,67,-99.99,,,-99.99,0.000000,,2013-05-03 06:00:00,
2013-05-03 02:42:00,54.0,44.0,-100.00,East,90,1.0,-999.0,67,-99.99,,,-99.99,0.000000,,2013-05-03 06:42:00,
2013-05-03 02:52:00,54.0,44.0,-100.00,East,90,1.0,-999.0,67,-99.99,,,-99.99,0.000000,,2013-05-03 06:52:00,
2013-05-03 03:00:00,54.0,45.0,-100.00,SE,135,1.0,-999.0,71,-99.99,,,-99.99,0.000000,,2013-05-03 07:00:00,
2013-05-03 03:42:00,54.0,45.0,-100.00,SE,135,1.0,-999.0,71,-99.99,,,-99.99,0.000000,,2013-05-03 07:42:00,
2013-05-03 03:52:00,54.0,45.0,-100.00,SE,135,1.0,-999.0,71,-99.99,,,-99.99,0.000000,,2013-05-03 07:52:00,
2013-05-03 04:00:00,54.0,47.0,-100.00,ESE,112,2.0,-999.0,77,-99.99,,,-99.99,0.000000,,2013-05-03 08:00:00,
2013-05-03 04:42:00,54.0,47.0,-100.00,ESE,112,2.0,-999.0,77,-99.99,,,-99.99,0.000000,,2013-05-03 08:42:00,
2013-05-03 04:53:00,54.0,47.0,-100.00,ESE,112,2.0,-999.0,77,-99.99,,,-99.99,0.000000,,2013-05-03 08:53:00,
2013-05-03 05:00:00,54.0,48.0,-100.00,ESE,112,2.0,-999.0,79,-99.99,,,-99.99,0.000000,,2013-05-03 09:00:00,
2013-05-03 05:42:00,54.0,48.0,-100.00,ESE,112,2.0,-999.0,79,-99.99,,,-99.99,0.000000,,2013-05-03 09:42:00,
2013-05-03 05:53:00,54.0,48.0,-100.00,ESE,112,2.0,-999.0,79,-99.99,,,-99.99,0.000000,,2013-05-03 09:53:00,
2013-05-03 06:00:00,55.0,49.0,-100.00,SE,135,5.0,-999.0,78,-99.99,,,-99.99,0.000000,,2013-05-03 10:00:00,
2013-05-03 06:42:00,55.0,49.0,-100.00,SE,135,5.0,-999.0,78,-99.99,,,-99.99,0.000000,,2013-05-03 10:42:00,
2013-05-03 06:52:00,55.0,49.0,-100.00,SE,135,5.0,-999.0,78,-99.99,,,-99.99,0.000000,,2013-05-03 10:52:00,
2013-05-03 07:00:00,58.0,48.0,-100.00,SE,135,7.0,-999.0,71,-99.99,,,-99.99,9.280000,,2013-05-03 11:00:00,
2013-05-03 07:42:00,58.0,48.0,-100.00,SE,135,7.0,-999.0,71,-99.99,,,-99.99,9.280000,,2013-05-03 11:42:00,
2013-05-03 07:52:00,58.0,48.0,-100.00,SE,135,7.0,-999.0,71,-99.99,,,-99.99,9.280000,,2013-05-03 11:52:00,
2013-05-03 09:00:00,62.0,48.0,-100.00,SSE,157,7.0,-999.0,61,-99.99,,,-99.99,116.000000,,2013-05-03 13:00:00,
2013-05-03 09:42:00,62.0,48.0,-100.00,SSE,157,7.0,-999.0,61,-99.99,,,-99.99,116.000000,,2013-05-03 13:42:00,
2013-05-03 09:52:00,62.0,48.0,-100.00,SSE,157,7.0,-999.0,61,-99.99,,,-99.99,116.000000,,2013-05-03 13:52:00,
2013-05-03 10:00:00,67.0,51.0,-100.00,South,180,8.0,-999.0,56,-99.99,,,-99.99,354.959991,,2013-05-03 14:00:00,
2013-05-03 10:42:00,67.0,51.0,-100.00,South,180,8.0,-999.0,56,-99.99,,,-99.99,354.959991,,2013-05-03 14:42:00,
2013-05-03 10:52:00,67.0,51.0,-100.00,South,180,8.0,-999.0,56,-99.99,,,-99.99,354.959991,,2013-05-03 14:52:00,
2013-05-03 11:00:00,71.0,52.0,-100.00,South,180,8.0,-999.0,50,-99.99,,,-99.99,586.960022,,2013-05-03 15:00:00,
2013-05-03 11:43:00,71.0,52.0,-100.00,South,180,8.0,-999.0,50,-99.99,,,-99.99,586.960022,,2013-05-03 15:43:00,
2013-05-03 11:53:00,71.0,52.0,-100.00,South,180,8.0,-999.0,50,-99.99,,,-99.99,586.960022,,2013-05-03 15:53:00,
2013-05-03 12:00:00,75.0,53.0,-100.00,SSE,157,7.0,-999.0,46,-99.99,,,-99.99,743.559998,,2013-05-03 16:00:00,
2013-05-03 12:42:00,75.0,53.0,-100.00,SSE,157,7.0,-999.0,46,-99.99,,,-99.99,743.559998,,2013-05-03 16:42:00,
2013-05-03 12:52:00,75.0,53.0,-100.00,SSE,157,7.0,-999.0,46,-99.99,,,-99.99,743.559998,,2013-05-03 16:52:00,
2013-05-03 13:00:00,74.0,54.0,-100.00,ESE,112,10.0,-999.0,50,-99.99,,,-99.99,540.559998,,2013-05-03 17:00:00,
2013-05-03 13:42:00,74.0,54.0,-100.00,ESE,112,10.0,-999.0,50,-99.99,,,-99.99,540.559998,,2013-05-03 17:42:00,
2013-05-03 13:52:00,74.0,54.0,-100.00,ESE,112,10.0,-999.0,50,-99.99,,,-99.99,540.559998,,2013-05-03 17:52:00,
2013-05-03 14:00:00,74.0,53.0,-100.00,ESE,112,11.0,-999.0,47,-99.99,,,-99.99,764.440002,,2013-05-03 18:00:00,
2013-05-03 14:42:00,74.0,53.0,-100.00,ESE,112,11.0,-999.0,47,-99.99,,,-99.99,764.440002,,2013-05-03 18:42:00,
2013-05-03 14:52:00,74.0,53.0,-100.00,ESE,112,11.0,-999.0,47,-99.99,,,-99.99,764.440002,,2013-05-03 18:52:00,
2013-05-03 15:00:00,74.0,49.0,-100.00,ESE,112,13.0,-999.0,42,-99.99,,,-99.99,806.200012,,2013-05-03 19:00:00,
2013-05-03 15:42:00,74.0,49.0,-100.00,ESE,112,13.0,-999.0,42,-99.99,,,-99.99,806.200012,,2013-05-03 19:42:00,
2013-05-03 15:52:00,74.0,49.0,-100.00,ESE,112,13.0,-999.0,42,-99.99,,,-99.99,806.200012,,2013-05-03 19:52:00,
2013-05-03 16:00:00,72.0,46.0,-100.00,East,90,11.0,-999.0,39,-99.99,,,-99.99,658.880005,,2013-05-03 20:00:00,
2013-05-03 16:42:00,72.0,46.0,-100.00,East,90,11.0,-999.0,39,-99.99,,,-99.99,658.880005,,2013-05-03 20:42:00,
2013-05-03 16:52:00,72.0,46.0,-100.00,East,90,11.0,-999.0,39,-99.99,,,-99.99,658.880005,,2013-05-03 20:52:00,
2013-05-03 17:00:00,72.0,41.0,-100.00,ESE,112,11.0,-999.0,31,-99.99,,,-99.99,584.640015,,2013-05-03 21:00:00,
2013-05-03 17:33:00,72.0,41.0,-100.00,ESE,112,11.0,-999.0,31,-99.99,,,-99.99,584.640015,,2013-05-03 21:33:00,
2013-05-03 17:43:00,72.0,41.0,-100.00,ESE,112,11.0,-999.0,31,-99.99,,,-99.99,584.640015,,2013-05-03 21:43:00,
2013-05-03 17:53:00,72.0,41.0,-100.00,ESE,112,11.0,-999.0,31,-99.99,,,-99.99,584.640015,,2013-05-03 21:53:00,
2013-05-03 21:00:00,63.0,39.0,-100.00,ESE,112,6.0,-999.0,40,-99.99,,,-99.99,11.600000,,2013-05-04 01:00:00,
2013-05-03 21:42:00,63.0,39.0,-100.00,ESE,112,6.0,-999.0,40,-99.99,,,-99.99,11.600000,,2013-05-04 01:42:00,
2013-05-03 21:52:00,63.0,39.0,-100.00,ESE,112,6.0,-999.0,40,-99.99,,,-99.99,11.600000,,2013-05-04 01:52:00,
2013-05-03 22:00:00,58.0,42.0,-100.00,ESE,112,5.0,-999.0,54,-99.99,,,-99.99,0.000000,,2013-05-04 02:00:00,
2013-05-03 22:42:00,58.0,42.0,-100.00,ESE,112,5.0,-999.0,54,-99.99,,,-99.99,0.000000,,2013-05-04 02:42:00,
2013-05-03 22:52:00,58.0,42.0,-100.00,ESE,112,5.0,-999.0,54,-99.99,,,-99.99,0.000000,,2013-05-04 02:52:00,
2013-05-03 23:00:00,56.0,43.0,-100.00,ESE,112,4.0,-999.0,61,-99.99,,,-99.99,0.000000,,2013-05-04 03:00:00,
2013-05-03 23:43:00,56.0,43.0,-100.00,ESE,112,4.0,-999.0,61,-99.99,,,-99.99,0.000000,,2013-05-04 03:43:00,
2013-05-03 23:53:00,56.0,43.0,-100.00,ESE,112,4.0,-999.0,61,-99.99,,,-99.99,0.000000,,2013-05-04 03:53:00,